Harwinton, Connecticut
Current Conditions -  °F | °C
As of 10:48 AM on Monday 22 Dec 2014 (Local Time) from KOXC Reporting Station
Overcast Overcast  
Wind Chill: 29°   Ceiling: 4000
Heat Index: 36°   Visibility: 8mi
Dew Point: 28°   Wind: 8mph
Humidity: 75%   Direction: 80°E
Pressure: 30.32"   Gusts: NA
Location:  41.77°N, 73.07°W
Report Text: KOXC 221548Z 08007KT 8SM FEW015 OVC040 02/M02 A3032
Loading
Personal Weather Stations






























Interactive Weather Map New forecast layout! Learn more

10-Day Weather Forecast

Advertisements
Track Severe Weather on mobile